createdAt,value
2019-01-13T00:02:20.195Z,7.00
2019-01-13T00:06:24.421Z,7.00
2019-01-13T00:10:28.542Z,7.00
2019-01-13T00:14:32.717Z,7.00
2019-01-13T00:18:36.830Z,7.00
2019-01-13T00:22:41.085Z,7.00
2019-01-13T00:26:45.250Z,7.00
2019-01-13T00:30:49.471Z,7.00
2019-01-13T00:34:53.617Z,7.10
2019-01-13T00:38:57.722Z,7.10
2019-01-13T00:43:01.839Z,7.10
2019-01-13T00:47:06.062Z,7.10
2019-01-13T00:51:10.239Z,7.10
2019-01-13T00:55:14.841Z,7.10
2019-01-13T00:59:18.973Z,7.10
2019-01-13T01:03:23.086Z,7.10
2019-01-13T01:07:27.247Z,7.10
2019-01-13T01:11:31.441Z,7.10
2019-01-13T01:15:35.683Z,7.10
2019-01-13T01:19:39.862Z,7.10
2019-01-13T01:23:44.050Z,7.20
2019-01-13T01:27:48.243Z,7.20
2019-01-13T01:31:52.414Z,7.20
2019-01-13T01:35:56.747Z,7.20
2019-01-13T01:40:00.898Z,7.20
2019-01-13T01:44:05.491Z,7.20
2019-01-13T01:48:09.651Z,7.20
2019-01-13T01:52:13.835Z,7.30
2019-01-13T01:56:18.022Z,7.30
2019-01-13T02:00:23.730Z,7.30
2019-01-13T02:04:27.842Z,7.30
2019-01-13T02:08:32.001Z,7.30
2019-01-13T02:12:36.118Z,7.30
2019-01-13T02:16:40.358Z,7.30
2019-01-13T02:20:44.482Z,7.30
2019-01-13T02:24:48.667Z,7.20
2019-01-13T02:28:52.855Z,7.30
2019-01-13T02:32:57.118Z,7.30
2019-01-13T02:37:01.313Z,7.20
2019-01-13T02:41:05.502Z,7.20
2019-01-13T02:45:13.061Z,7.20
2019-01-13T02:49:17.173Z,7.30
2019-01-13T02:53:21.331Z,7.30
2019-01-13T02:57:25.509Z,7.30
2019-01-13T03:01:29.650Z,7.20
2019-01-13T03:05:33.834Z,7.30
2019-01-13T03:09:38.029Z,7.20
2019-01-13T03:13:42.126Z,7.30
2019-01-13T03:17:46.307Z,7.20
2019-01-13T03:21:50.508Z,7.20
2019-01-13T03:25:54.694Z,7.30
2019-01-13T03:29:58.850Z,7.30
2019-01-13T03:34:02.961Z,7.30
2019-01-13T03:38:07.147Z,7.30
2019-01-13T03:42:11.430Z,7.30
2019-01-13T03:46:15.682Z,7.30
2019-01-13T03:50:21.926Z,7.30
2019-01-13T03:54:26.094Z,7.30
2019-01-13T03:58:30.371Z,7.30
2019-01-13T04:02:34.553Z,7.30
2019-01-13T04:06:38.846Z,7.30
2019-01-13T04:10:42.958Z,7.30
2019-01-13T04:14:47.114Z,7.30
2019-01-13T04:18:51.221Z,7.20
2019-01-13T04:22:55.410Z,7.20
2019-01-13T04:26:59.603Z,7.20
2019-01-13T04:31:03.786Z,7.20
2019-01-13T04:35:08.462Z,7.20
2019-01-13T04:39:12.657Z,7.20
2019-01-13T04:43:16.757Z,7.20
2019-01-13T04:47:20.874Z,7.20
2019-01-13T04:51:25.083Z,7.20
2019-01-13T04:55:29.257Z,7.20
2019-01-13T04:59:33.462Z,7.20
2019-01-13T05:03:37.641Z,7.20
2019-01-13T05:07:41.750Z,7.20
2019-01-13T05:11:45.935Z,7.20
2019-01-13T05:15:50.097Z,7.20
2019-01-13T05:19:54.267Z,7.30
2019-01-13T05:23:58.505Z,7.20
2019-01-13T05:28:02.674Z,7.30
2019-01-13T05:32:06.858Z,7.30
2019-01-13T05:36:11.019Z,7.30
2019-01-13T05:40:17.185Z,7.30
2019-01-13T05:44:21.361Z,7.30
2019-01-13T05:48:25.554Z,7.40
2019-01-13T05:52:29.742Z,7.40
2019-01-13T05:56:33.974Z,7.40
2019-01-13T06:00:42.877Z,7.40
2019-01-13T06:04:47.066Z,7.40
2019-01-13T06:08:51.178Z,7.40
2019-01-13T06:12:55.350Z,7.40
2019-01-13T06:16:59.454Z,7.40
2019-01-13T06:21:03.638Z,7.40
2019-01-13T06:25:08.226Z,7.40
2019-01-13T06:29:12.406Z,7.40
2019-01-13T06:33:16.588Z,7.40
2019-01-13T06:37:20.689Z,7.30
2019-01-13T06:41:24.869Z,7.30
2019-01-13T06:45:28.982Z,7.30
2019-01-13T06:49:33.339Z,7.30
2019-01-13T06:53:37.650Z,7.30
2019-01-13T06:57:41.801Z,7.30
2019-01-13T07:01:46.001Z,7.30
2019-01-13T07:05:50.262Z,7.30
2019-01-13T07:09:54.370Z,7.30
2019-01-13T07:13:58.497Z,7.30
2019-01-13T07:18:02.666Z,7.30
2019-01-13T07:22:06.854Z,7.30
2019-01-13T07:26:11.034Z,7.30
2019-01-13T07:30:17.384Z,7.30
2019-01-13T07:34:21.578Z,7.40
2019-01-13T07:38:25.728Z,7.30
2019-01-13T07:42:29.914Z,7.40
2019-01-13T07:46:34.135Z,7.40
2019-01-13T07:50:38.326Z,7.40
2019-01-13T07:54:42.549Z,7.40
2019-01-13T07:58:46.657Z,7.40
2019-01-13T08:02:50.834Z,7.40
2019-01-13T08:06:55.018Z,7.40
2019-01-13T08:10:59.206Z,7.50
2019-01-13T08:15:03.574Z,7.50
2019-01-13T08:19:07.724Z,7.50
2019-01-13T08:23:12.109Z,7.50
2019-01-13T08:27:16.298Z,7.60
2019-01-13T08:31:20.530Z,7.60
2019-01-13T08:35:24.657Z,7.60
2019-01-13T08:39:28.811Z,7.70
2019-01-13T08:43:32.930Z,7.70
2019-01-13T08:47:37.031Z,7.70
2019-01-13T08:51:41.229Z,7.80
2019-01-13T08:55:45.337Z,7.80
2019-01-13T08:59:49.492Z,7.80
2019-01-13T09:03:53.594Z,7.90
2019-01-13T09:07:57.777Z,7.90
2019-01-13T09:12:01.891Z,7.90
2019-01-13T09:16:06.069Z,7.90
2019-01-13T09:20:13.264Z,8.00
2019-01-13T09:24:17.530Z,8.00
2019-01-13T09:28:21.714Z,8.00
2019-01-13T09:32:25.907Z,8.00
2019-01-13T09:36:30.122Z,8.10
2019-01-13T09:40:34.278Z,8.20
2019-01-13T09:44:38.466Z,8.20
2019-01-13T09:48:43.518Z,8.30
2019-01-13T09:52:48.019Z,8.40
2019-01-13T09:56:52.210Z,8.40
2019-01-13T10:00:56.421Z,8.50
2019-01-13T10:05:00.597Z,8.50
2019-01-13T10:09:07.709Z,8.50
2019-01-13T10:13:12.174Z,8.60
2019-01-13T10:17:16.385Z,8.60
2019-01-13T10:21:20.645Z,8.60
2019-01-13T10:25:24.869Z,8.70
2019-01-13T10:29:29.055Z,8.70
2019-01-13T10:33:33.252Z,8.70
2019-01-13T10:37:37.414Z,8.70
2019-01-13T10:41:41.773Z,8.80
2019-01-13T10:45:46.175Z,8.80
2019-01-13T10:49:50.445Z,8.90
2019-01-13T10:53:54.629Z,8.90
2019-01-13T10:57:58.866Z,8.90
2019-01-13T11:02:03.115Z,8.90
2019-01-13T11:06:07.420Z,9.00
2019-01-13T11:10:12.959Z,9.00
2019-01-13T11:14:17.137Z,9.00
2019-01-13T11:18:21.341Z,9.00
2019-01-13T11:22:25.794Z,9.10
2019-01-13T11:26:30.007Z,9.10
2019-01-13T11:30:34.278Z,9.10
2019-01-13T11:34:38.554Z,9.10
2019-01-13T11:38:42.939Z,9.20
2019-01-13T11:42:47.134Z,9.20
2019-01-13T11:46:51.314Z,9.20
2019-01-13T11:50:56.229Z,9.20
2019-01-13T11:55:00.349Z,9.20
2019-01-13T11:59:04.518Z,9.30
2019-01-13T12:03:16.491Z,9.30
2019-01-13T12:07:15.558Z,9.30
2019-01-13T12:11:20.347Z,9.30
2019-01-13T12:15:24.533Z,9.30
2019-01-13T12:19:29.247Z,9.30
2019-01-13T12:23:33.341Z,9.30
2019-01-13T12:27:37.751Z,9.30
2019-01-13T12:31:41.982Z,9.40
2019-01-13T12:35:46.162Z,9.30
2019-01-13T12:39:50.346Z,9.40
2019-01-13T12:43:54.566Z,9.30
2019-01-13T12:47:58.775Z,9.30
2019-01-13T12:52:03.104Z,9.30
2019-01-13T12:56:07.823Z,9.30
2019-01-13T13:00:13.779Z,9.30
2019-01-13T13:04:18.884Z,9.30
2019-01-13T13:08:23.062Z,9.30
2019-01-13T13:12:27.378Z,9.30
2019-01-13T13:16:31.682Z,9.30
2019-01-13T13:20:36.017Z,9.30
2019-01-13T13:24:40.135Z,9.30
2019-01-13T13:28:44.343Z,9.30
2019-01-13T13:32:48.607Z,9.30
2019-01-13T13:36:52.887Z,9.20
2019-01-13T13:40:57.157Z,9.20
2019-01-13T13:45:01.295Z,9.30
2019-01-13T13:49:05.642Z,9.30
2019-01-13T13:57:33.022Z,9.20
2019-01-13T14:01:37.362Z,9.20
2019-01-13T14:05:41.643Z,9.10
2019-01-13T14:09:45.809Z,9.20
2019-01-13T14:13:50.210Z,9.10
2019-01-13T14:17:54.461Z,9.10
2019-01-13T14:21:58.582Z,9.10
2019-01-13T14:26:02.782Z,9.10
2019-01-13T14:30:10.935Z,9.10
2019-01-13T14:34:15.114Z,9.10
2019-01-13T14:38:19.318Z,9.20
2019-01-13T14:42:23.547Z,9.10
2019-01-13T14:46:27.754Z,9.10
2019-01-13T14:50:33.056Z,9.10
2019-01-13T14:54:37.634Z,9.10
2019-01-13T14:58:41.894Z,9.20
2019-01-13T15:02:46.168Z,9.10
2019-01-13T15:06:50.348Z,9.10
2019-01-13T15:10:54.530Z,9.10
2019-01-13T15:14:58.738Z,9.10
2019-01-13T15:19:02.936Z,9.10
2019-01-13T15:23:07.113Z,9.10
2019-01-13T15:27:11.221Z,9.10
2019-01-13T15:31:15.422Z,9.10
2019-01-13T15:35:19.510Z,9.10
2019-01-13T15:39:23.693Z,9.10
2019-01-13T15:43:27.884Z,9.10
2019-01-13T15:47:32.066Z,9.10
2019-01-13T15:51:36.263Z,9.10
2019-01-13T15:55:40.618Z,9.10
2019-01-13T15:59:44.830Z,9.10
2019-01-13T16:03:49.017Z,9.10
2019-01-13T16:07:53.215Z,9.10
2019-01-13T16:11:57.406Z,9.10
2019-01-13T16:16:01.505Z,9.10
2019-01-13T16:20:09.469Z,9.10
2019-01-13T16:24:13.614Z,9.10
2019-01-13T16:28:17.743Z,9.00
2019-01-13T16:32:21.917Z,9.10
2019-01-13T16:36:26.016Z,9.00
2019-01-13T16:40:30.146Z,9.00
2019-01-13T16:44:34.340Z,9.00
2019-01-13T16:48:38.526Z,8.90
2019-01-13T16:52:43.535Z,8.80
2019-01-13T16:56:47.742Z,8.60
2019-01-13T17:00:52.025Z,8.50
2019-01-13T17:04:56.210Z,8.30
2019-01-13T17:09:00.389Z,8.10
2019-01-13T17:13:04.499Z,8.00
2019-01-13T17:17:08.671Z,7.90
2019-01-13T17:21:12.987Z,7.80
2019-01-13T17:25:22.586Z,7.70
2019-01-13T17:29:26.859Z,7.70
2019-01-13T17:33:31.045Z,7.70
2019-01-13T17:37:35.453Z,7.60
2019-01-13T17:41:39.607Z,7.60
2019-01-13T17:45:43.813Z,7.60
2019-01-13T17:49:48.185Z,7.60
2019-01-13T17:53:52.478Z,7.60
2019-01-13T17:57:56.713Z,7.60
2019-01-13T18:02:00.864Z,7.50
2019-01-13T18:06:05.174Z,7.50
2019-01-13T18:10:09.500Z,7.50
2019-01-13T18:14:13.685Z,7.40
2019-01-13T18:18:17.927Z,7.40
2019-01-13T18:22:22.150Z,7.40
2019-01-13T18:26:26.413Z,7.40
2019-01-13T18:30:30.533Z,7.30
2019-01-13T18:34:34.991Z,7.30
2019-01-13T18:38:39.182Z,7.30
2019-01-13T18:42:43.438Z,7.40
2019-01-13T18:46:47.617Z,7.40
2019-01-13T18:50:51.873Z,7.40
2019-01-13T18:54:56.058Z,7.40
2019-01-13T18:59:00.245Z,7.50
2019-01-13T19:03:04.453Z,7.50
2019-01-13T19:07:08.637Z,7.50
2019-01-13T19:11:24.639Z,7.50
2019-01-13T19:15:28.841Z,7.50
2019-01-13T19:19:51.890Z,7.40
2019-01-13T19:23:56.130Z,7.40
2019-01-13T19:28:00.341Z,7.40
2019-01-13T19:32:04.534Z,7.30
2019-01-13T19:36:08.647Z,7.30
2019-01-13T19:40:14.462Z,7.30
2019-01-13T19:44:18.645Z,7.30
2019-01-13T19:48:22.763Z,7.30
2019-01-13T19:52:26.970Z,7.30
2019-01-13T19:56:31.183Z,7.30
2019-01-13T20:00:36.530Z,7.30
2019-01-13T20:04:43.544Z,7.40
2019-01-13T20:08:47.750Z,7.40
2019-01-13T20:12:51.938Z,7.40
2019-01-13T20:16:56.179Z,7.40
2019-01-13T20:21:00.428Z,7.40
2019-01-13T20:25:05.831Z,7.40
2019-01-13T20:29:10.077Z,7.50
2019-01-13T20:33:17.136Z,7.50
2019-01-13T20:37:21.315Z,7.50
2019-01-13T20:41:25.530Z,7.50
2019-01-13T20:45:35.045Z,7.50
2019-01-13T20:49:39.242Z,7.50
2019-01-13T20:53:43.518Z,7.50
2019-01-13T20:57:47.719Z,7.50
2019-01-13T21:01:52.022Z,7.50
2019-01-13T21:05:56.198Z,7.50
2019-01-13T21:10:00.394Z,7.50
2019-01-13T21:14:04.850Z,7.50
2019-01-13T21:18:10.267Z,7.50
2019-01-13T21:22:14.496Z,7.50
2019-01-13T21:26:18.979Z,7.50
2019-01-13T21:30:27.524Z,7.50
2019-01-13T21:34:31.832Z,7.40
2019-01-13T21:38:36.138Z,7.40
2019-01-13T21:42:40.350Z,7.40
2019-01-13T21:46:44.968Z,7.40
2019-01-13T21:50:49.229Z,7.40
2019-01-13T21:54:53.759Z,7.40
2019-01-13T21:58:57.964Z,7.40
2019-01-13T22:03:02.106Z,7.40
2019-01-13T22:07:06.302Z,7.40
2019-01-13T22:11:10.599Z,7.40
2019-01-13T22:15:16.795Z,7.40
2019-01-13T22:19:20.992Z,7.40
2019-01-13T22:23:25.190Z,7.40
2019-01-13T22:27:29.455Z,7.40
2019-01-13T22:31:33.673Z,7.40
2019-01-13T22:35:37.964Z,7.40
2019-01-13T22:39:42.189Z,7.30
2019-01-13T22:43:46.512Z,7.30
2019-01-13T22:47:50.880Z,7.30
2019-01-13T22:51:54.995Z,7.30
2019-01-13T22:55:59.366Z,7.30
2019-01-13T23:00:12.321Z,7.20
2019-01-13T23:04:17.743Z,7.20
2019-01-13T23:08:21.910Z,7.10
2019-01-13T23:12:26.094Z,7.10
2019-01-13T23:16:30.274Z,7.10
2019-01-13T23:20:34.383Z,7.10
2019-01-13T23:24:38.574Z,7.10
2019-01-13T23:28:42.733Z,7.10
2019-01-13T23:32:46.846Z,7.00
2019-01-13T23:36:51.071Z,7.00
2019-01-13T23:40:55.286Z,7.00
2019-01-13T23:44:59.545Z,6.90
2019-01-13T23:49:04.518Z,6.90
2019-01-13T23:53:08.766Z,6.90
2019-01-13T23:57:12.906Z,6.90
